WetterOnline ( https://www.wetteronline.de )

Wetter aktuell Potsdam

Aktuelles Wetter: Potsdam (100m)

6-stündlich | Neueste Meldungen
Ortszeit Temperatur Wetter
Mi, 24.07. 2:00 16.0° C Nebel
Di, 23.07. 20:00 17.6° C leichter Regen
Di, 23.07. 14:00 26.9° C wolkig
Di, 23.07. 8:00 17.1° C bedeckt
Di, 23.07. 2:00 15.0° C wolkenlos
Mo, 22.07. 20:00 21.2° C wolkenlos
Mo, 22.07. 14:00 20.1° C bedeckt
Mo, 22.07. 8:00 20.6° C bewölkt
Ortszeit Temperatur Wetter
Mi, 24.07. 4:30 15.9° C bewölkt
Mi, 24.07. 4:20 15.9° C bewölkt
Mi, 24.07. 4:10 15.8° C bewölkt
Mi, 24.07. 4:00 15.9° C bewölkt
Mi, 24.07. 3:50 15.9° C bewölkt
Mi, 24.07. 3:40 16.0° C bedeckt
Mi, 24.07. 3:30 16.1° C leichter Regen
Mi, 24.07. 3:00 16.3° C bedeckt
Mi, 24.07. 2:30 16.4° C leichter Regen
Mi, 24.07. 2:00 16.0° C Nebel
Mi, 24.07. 1:30 15.8° C Nebel
Ortszeit Relative Feuchte Sichtweite
Mi, 24.07. 2:00 97% 5.0 km
Di, 23.07. 20:00 92% 40 km
Di, 23.07. 14:00 45% 60 km
Di, 23.07. 8:00 74% 50 km
Di, 23.07. 2:00 84% 65 km
Mo, 22.07. 20:00 61% >70 km
Mo, 22.07. 14:00 77% 60 km
Mo, 22.07. 8:00 87% 40 km
Ortszeit Relative Feuchte Sichtweite
Mi, 24.07. 4:30 97% 8 km
Mi, 24.07. 4:20 97% -
Mi, 24.07. 4:10 96% -
Mi, 24.07. 4:00 96% 15 km
Mi, 24.07. 3:50 96% -
Mi, 24.07. 3:40 96% -
Mi, 24.07. 3:30 96% 16 km
Mi, 24.07. 3:00 96% 18 km
Mi, 24.07. 2:30 97% 8 km
Mi, 24.07. 2:00 97% 5.0 km
Mi, 24.07. 1:30 97% 0.9 km
Ortszeit Niederschlagsmenge Niederschlagsart
Mi, 24.07. 2:00 0.5 l/m2 in 6 Std. Regen
Di, 23.07. 20:00 1 l/m2 in 12 Std. Regen
Di, 23.07. 14:00 0.0 l/m2 in 6 Std. -
Di, 23.07. 8:00 0.0 l/m2 in 12 Std. -
Di, 23.07. 2:00 0.0 l/m2 in 6 Std. -
Mo, 22.07. 20:00 0.2 l/m2 in 12 Std. -
Mo, 22.07. 14:00 0.2 l/m2 in 6 Std. Regen
Mo, 22.07. 8:00 0.1 l/m2 in 12 Std. Regen
Ortszeit Niederschlagsmenge Niederschlagsart
Mi, 24.07. 4:30 0.0 l/m2 in 30 Min -
Mi, 24.07. 4:20 keine Meldung -
Mi, 24.07. 4:10 keine Meldung -
Mi, 24.07. 4:00 0.1 l/m2 in 1 Std. Regen
Mi, 24.07. 3:50 keine Meldung -
Mi, 24.07. 3:40 keine Meldung -
Mi, 24.07. 3:30 <0.05 l/m2 in 30 Min -
Mi, 24.07. 3:00 1.0 l/m2 in 1 Std. Regen
Mi, 24.07. 2:30 0.1 l/m2 in 30 Min -
Mi, 24.07. 2:00 0.0 l/m2 in 1 Std. Regen
Mi, 24.07. 1:30 0.0 l/m2 in 30 Min -
Ortszeit Stärke Spitze Richtung
km/h Bft. km/h Grad Sektor
Mi, 24.07. 2:00 11 2 22 260° W
Di, 23.07. 20:00 6 1 70 340° N
Di, 23.07. 14:00 9 2 26 180° S
Di, 23.07. 8:00 13 3 19 170° S
Di, 23.07. 2:00 7 2 25 220° SW
Mo, 22.07. 20:00 14 3 40 280° W
Mo, 22.07. 14:00 22 4 50 290° W
Mo, 22.07. 8:00 17 3 30 240° SW
Ortszeit Stärke Spitze Richtung
km/h Bft. km/h Grad Sektor
Mi, 24.07. 4:30 11 2 18 260° W
Mi, 24.07. 4:20 11 2 - 260° W
Mi, 24.07. 4:10 11 2 - 250° W
Mi, 24.07. 4:00 9 2 20 250° W
Mi, 24.07. 3:50 9 2 - 250° W
Mi, 24.07. 3:40 11 2 - 260° W
Mi, 24.07. 3:30 15 3 20 270° W
Mi, 24.07. 3:00 11 2 22 250° W
Mi, 24.07. 2:30 14 3 22 250° W
Mi, 24.07. 2:00 11 2 14 260° W
Mi, 24.07. 1:30 11 2 14 240° SW
Ortszeit Untergrenze Bedeckung Gattung
total tief tief mittel hoch
Mi, 24.07. 2:00 1350 m 8/8 3/8 - - -
Di, 23.07. 20:00 1800 m 8/8 4/8 - - -
Di, 23.07. 14:00 1500 m 6/8 2/8 - - -
Di, 23.07. 8:00 2100 m 8/8 8/8 - - -
Di, 23.07. 2:00 - 0/8 0/8 - - -
Mo, 22.07. 20:00 - 0/8 0/8 - - -
Mo, 22.07. 14:00 570 m 8/8 8/8 - - -
Mo, 22.07. 8:00 270 m 8/8 7/8 - - -
Ortszeit Bedeckungsgrad in Achtel und Wolkenuntergrenze
Mi, 24.07. 4:30 6(150m) 7(540m) 7(2700m)
Mi, 24.07. 4:20 6(150m) 7(540m) 7(2700m)
Mi, 24.07. 4:10 7
Mi, 24.07. 4:00 4(330m) 7(570m) 8(5400m)
Mi, 24.07. 3:50 4(330m) 7(570m) 8(5400m)
Mi, 24.07. 3:40 8
Mi, 24.07. 3:30 5(450m) 8(4200m) 8(6600m)
Mi, 24.07. 3:00 5(90m) 6(1050m) 8(2700m)
Mi, 24.07. 2:30 3(240m) 7(570m) 8(3000m)
Mi, 24.07. 2:00 3(1350m) 7(3000m) 8(8400m)
Mi, 24.07. 1:30 2(660m) 6(7500m) 7(8100m)
Ortszeit Luftdruck NN (hPa) Tendenz (hPa in 3 Std.)
Mi, 24.07. 2:00 1015 0,0
Di, 23.07. 20:00 1014 + 0,6
Di, 23.07. 14:00 1016 - 1,7
Di, 23.07. 8:00 1018 + 0,3
Di, 23.07. 2:00 1018 + 0,3
Mo, 22.07. 20:00 1016 + 0,7
Mo, 22.07. 14:00 1014 + 2,0
Mo, 22.07. 8:00 1011 + 1,2
Ortszeit Luftdruck NN (hPa) Tendenz (hPa in 3 Std.)
Mi, 24.07. 4:30 1015 - 0,2
Mi, 24.07. 4:20 1015 keine Meldung
Mi, 24.07. 4:10 1015 keine Meldung
Mi, 24.07. 4:00 1015 - 0,4
Mi, 24.07. 3:50 1015 keine Meldung
Mi, 24.07. 3:40 1015 keine Meldung
Mi, 24.07. 3:30 1015 0,0
Mi, 24.07. 3:00 1015 - 0,1
Mi, 24.07. 2:30 1015 + 0,3
Mi, 24.07. 2:00 1015 0,0
Mi, 24.07. 1:30 1015 + 0,2
Ortszeit Schneehöhe (cm)
Mi, 24.07. 2:00 0
Di, 23.07. 20:00 0
Di, 23.07. 14:00 0
Di, 23.07. 8:00 0
Di, 23.07. 2:00 0
Mo, 22.07. 20:00 0
Mo, 22.07. 14:00 0
Mo, 22.07. 8:00 0
Ortszeit Schneehöhe (cm)
Mi, 24.07. 4:30 0
Mi, 24.07. 4:20 0
Mi, 24.07. 4:10 -
Mi, 24.07. 4:00 0
Mi, 24.07. 3:50 0
Mi, 24.07. 3:40 -
Mi, 24.07. 3:30 0
Mi, 24.07. 3:00 0
Mi, 24.07. 2:30 0
Mi, 24.07. 2:00 0
Mi, 24.07. 1:30 0
Link zu dieser Seite / Seite empfehlen

Das Wetter in ...